createdAt,value
2019-01-19T00:00:16.868Z,89.77
2019-01-19T00:03:39.396Z,89.79
2019-01-19T00:07:07.508Z,89.70
2019-01-19T00:11:08.120Z,89.71
2019-01-19T00:14:40.224Z,89.73
2019-01-19T00:18:29.154Z,89.69
2019-01-19T00:21:54.901Z,89.60
2019-01-19T00:25:15.869Z,89.64
2019-01-19T00:28:35.580Z,89.63
2019-01-19T00:31:49.933Z,89.63
2019-01-19T00:35:47.049Z,89.23
2019-01-19T00:39:08.725Z,89.29
2019-01-19T00:42:33.405Z,89.39
2019-01-19T00:46:17.772Z,89.46
2019-01-19T00:49:31.415Z,89.50
2019-01-19T00:53:12.280Z,89.51
2019-01-19T00:56:43.762Z,89.45
2019-01-19T00:59:52.372Z,89.47
2019-01-19T01:03:24.621Z,89.42
2019-01-19T01:06:59.275Z,89.43
2019-01-19T01:10:24.486Z,89.46
2019-01-19T01:14:11.099Z,89.38
2019-01-19T01:17:30.587Z,89.35
2019-01-19T01:21:20.650Z,89.33
2019-01-19T01:25:04.686Z,89.36
2019-01-19T01:28:38.173Z,89.16
2019-01-19T01:31:52.244Z,89.21
2019-01-19T01:35:32.773Z,89.19
2019-01-19T01:39:06.169Z,89.15
2019-01-19T01:42:45.077Z,89.14
2019-01-19T01:46:12.271Z,89.21
2019-01-19T01:49:46.765Z,89.08
2019-01-19T01:53:23.823Z,89.15
2019-01-19T01:56:27.827Z,89.13
2019-01-19T01:59:55.391Z,89.10
2019-01-19T02:03:46.468Z,89.12
2019-01-19T02:07:27.797Z,89.11
2019-01-19T02:11:26.972Z,89.08
2019-01-19T02:14:44.754Z,89.05
2019-01-19T02:18:27.126Z,89.07
2019-01-19T02:22:11.920Z,89.00
2019-01-19T02:26:01.519Z,89.00
2019-01-19T02:29:42.267Z,88.95
2019-01-19T02:33:18.678Z,88.91
2019-01-19T02:36:58.093Z,88.96
2019-01-19T02:40:30.504Z,88.97
2019-01-19T02:44:30.896Z,89.00
2019-01-19T02:48:08.550Z,89.08
2019-01-19T02:51:32.202Z,89.20
2019-01-19T02:55:36.161Z,89.17
2019-01-19T02:59:13.263Z,89.28
2019-01-19T03:02:36.950Z,89.40
2019-01-19T03:06:03.433Z,89.49
2019-01-19T03:09:41.706Z,89.62
2019-01-19T03:13:12.125Z,89.59
2019-01-19T03:16:39.713Z,89.72
2019-01-19T03:19:59.019Z,89.88
2019-01-19T03:23:15.383Z,89.96
2019-01-19T03:27:06.731Z,89.93
2019-01-19T03:31:06.809Z,90.01
2019-01-19T03:34:42.857Z,90.18
2019-01-19T03:38:14.178Z,90.31
2019-01-19T03:41:56.745Z,90.29
2019-01-19T03:45:23.001Z,90.39
2019-01-19T03:49:09.071Z,90.55
2019-01-19T03:52:24.582Z,90.60
2019-01-19T03:56:14.898Z,90.72
2019-01-19T03:59:35.735Z,90.81
2019-01-19T04:03:20.469Z,90.81
2019-01-19T04:06:42.708Z,90.78
2019-01-19T04:10:20.427Z,90.87
2019-01-19T04:14:00.391Z,91.07
2019-01-19T04:17:37.355Z,91.21
2019-01-19T04:21:20.948Z,91.30
2019-01-19T04:24:52.285Z,91.32
2019-01-19T04:27:56.438Z,91.46
2019-01-19T04:31:00.642Z,91.50
2019-01-19T04:34:05.069Z,91.32
2019-01-19T04:37:09.454Z,91.40
2019-01-19T04:40:14.275Z,91.51
2019-01-19T04:43:18.749Z,91.61
2019-01-19T04:46:23.118Z,91.66
2019-01-19T04:49:27.628Z,91.73
2019-01-19T04:52:31.527Z,91.81
2019-01-19T04:55:35.615Z,91.85
2019-01-19T04:58:39.622Z,92.00
2019-01-19T05:01:43.679Z,92.04
2019-01-19T05:04:47.494Z,92.08
2019-01-19T05:07:51.376Z,92.15
2019-01-19T05:10:55.268Z,92.13
2019-01-19T05:13:59.195Z,92.12
2019-01-19T05:17:03.463Z,92.15
2019-01-19T05:20:08.904Z,92.19
2019-01-19T05:23:12.791Z,92.21
2019-01-19T05:26:17.265Z,92.22
2019-01-19T05:29:21.085Z,92.19
2019-01-19T05:32:25.671Z,92.22
2019-01-19T05:35:30.156Z,92.24
2019-01-19T05:38:34.284Z,92.23
2019-01-19T05:41:38.267Z,92.31
2019-01-19T05:44:42.081Z,92.31
2019-01-19T05:47:45.961Z,92.36
2019-01-19T05:50:49.800Z,92.41
2019-01-19T05:53:53.699Z,92.46
2019-01-19T05:56:57.627Z,92.49
2019-01-19T06:00:01.524Z,92.49
2019-01-19T06:03:06.169Z,92.52
2019-01-19T06:06:10.439Z,92.54
2019-01-19T06:09:14.405Z,92.55
2019-01-19T06:12:18.276Z,92.58
2019-01-19T06:15:23.340Z,92.60
2019-01-19T06:18:28.330Z,92.62
2019-01-19T06:21:35.527Z,92.65
2019-01-19T06:24:39.524Z,92.65
2019-01-19T06:27:43.819Z,92.67
2019-01-19T06:30:47.611Z,92.70
2019-01-19T06:33:51.515Z,92.77
2019-01-19T06:36:55.478Z,92.82
2019-01-19T06:39:59.388Z,92.84
2019-01-19T06:43:03.197Z,92.83
2019-01-19T06:46:07.173Z,92.80
2019-01-19T06:49:11.107Z,93.05
2019-01-19T06:52:15.099Z,93.33
2019-01-19T06:55:22.077Z,93.43
2019-01-19T06:58:25.980Z,94.00
2019-01-19T07:01:29.944Z,94.15
2019-01-19T07:04:33.787Z,94.28
2019-01-19T07:07:37.761Z,94.41
2019-01-19T07:10:41.648Z,94.65
2019-01-19T07:13:45.466Z,94.72
2019-01-19T07:16:49.295Z,94.74
2019-01-19T07:19:53.158Z,94.92
2019-01-19T07:22:57.105Z,95.02
2019-01-19T07:26:00.933Z,95.15
2019-01-19T07:29:04.880Z,95.21
2019-01-19T07:32:08.880Z,95.25
2019-01-19T07:35:12.901Z,95.39
2019-01-19T07:38:16.821Z,95.40
2019-01-19T07:41:20.707Z,95.40
2019-01-19T07:44:24.556Z,95.49
2019-01-19T07:47:28.613Z,95.48
2019-01-19T07:50:32.493Z,95.46
2019-01-19T07:53:36.471Z,95.48
2019-01-19T07:56:40.387Z,95.48
2019-01-19T07:59:44.278Z,95.48
2019-01-19T08:02:48.218Z,95.51
2019-01-19T08:05:52.127Z,95.49
2019-01-19T08:08:56.890Z,95.45
2019-01-19T08:12:00.771Z,95.44
2019-01-19T08:15:05.711Z,95.45
2019-01-19T08:18:09.654Z,95.40
2019-01-19T08:21:13.486Z,95.42
2019-01-19T08:24:17.370Z,95.41
2019-01-19T08:27:21.257Z,95.41
2019-01-19T08:30:27.597Z,95.38
2019-01-19T08:33:31.693Z,95.35
2019-01-19T08:36:35.653Z,95.35
2019-01-19T08:39:39.619Z,95.25
2019-01-19T08:42:43.686Z,95.14
2019-01-19T08:45:49.627Z,95.11
2019-01-19T08:48:53.613Z,95.14
2019-01-19T08:51:57.503Z,95.15
2019-01-19T08:55:01.291Z,95.15
2019-01-19T08:58:05.580Z,95.05
2019-01-19T09:01:09.526Z,95.04
2019-01-19T09:04:13.425Z,95.07
2019-01-19T09:07:17.304Z,95.10
2019-01-19T09:10:21.674Z,95.08
2019-01-19T09:13:25.621Z,94.97
2019-01-19T09:16:29.575Z,94.84
2019-01-19T09:19:33.455Z,94.87
2019-01-19T09:22:37.432Z,94.90
2019-01-19T09:25:41.330Z,94.86
2019-01-19T09:28:45.262Z,94.86
2019-01-19T09:31:49.133Z,94.89
2019-01-19T09:34:53.019Z,94.74
2019-01-19T09:37:56.955Z,94.67
2019-01-19T09:41:01.031Z,94.71
2019-01-19T09:44:05.690Z,94.65
2019-01-19T09:47:09.749Z,94.58
2019-01-19T09:50:14.934Z,94.46
2019-01-19T09:53:18.827Z,94.42
2019-01-19T09:56:22.775Z,94.39
2019-01-19T09:59:26.668Z,94.27
2019-01-19T10:02:30.635Z,94.16
2019-01-19T10:05:34.635Z,94.17
2019-01-19T10:08:38.532Z,93.95
2019-01-19T10:11:42.483Z,93.87
2019-01-19T10:14:46.344Z,93.80
2019-01-19T10:17:50.408Z,93.80
2019-01-19T10:20:54.665Z,93.75
2019-01-19T10:23:58.629Z,93.78
2019-01-19T10:27:02.518Z,93.75
2019-01-19T10:30:09.445Z,93.59
2019-01-19T10:33:13.411Z,93.43
2019-01-19T10:36:17.282Z,93.40
2019-01-19T10:39:21.165Z,93.46
2019-01-19T10:42:25.042Z,93.41
2019-01-19T10:45:28.956Z,93.40
2019-01-19T10:48:32.836Z,93.41
2019-01-19T10:51:36.895Z,93.35
2019-01-19T10:54:40.879Z,93.35
2019-01-19T10:57:44.916Z,93.37
2019-01-19T11:00:48.808Z,93.33
2019-01-19T11:03:53.697Z,93.27
2019-01-19T11:06:57.597Z,93.12
2019-01-19T11:10:01.494Z,93.01
2019-01-19T11:13:05.556Z,92.95
2019-01-19T11:16:09.529Z,92.93
2019-01-19T11:19:13.413Z,92.78
2019-01-19T11:22:17.307Z,92.57
2019-01-19T11:25:21.240Z,92.66
2019-01-19T11:28:25.142Z,92.16
2019-01-19T11:31:29.024Z,92.13
2019-01-19T11:34:32.903Z,92.12
2019-01-19T11:37:36.799Z,92.10
2019-01-19T11:40:40.683Z,91.91
2019-01-19T11:43:44.491Z,91.69
2019-01-19T11:46:48.303Z,91.73
2019-01-19T11:49:52.127Z,91.57
2019-01-19T11:52:56.063Z,91.27
2019-01-19T11:56:00.048Z,91.10
2019-01-19T11:59:04.004Z,90.63
2019-01-19T12:02:07.890Z,90.56
2019-01-19T12:05:11.853Z,90.46
2019-01-19T12:08:19.671Z,90.02
2019-01-19T12:11:21.251Z,88.84
2019-01-19T12:14:25.069Z,88.82
2019-01-19T12:17:29.023Z,88.72
2019-01-19T12:20:35.706Z,88.24
2019-01-19T12:23:39.581Z,88.23
2019-01-19T12:26:43.464Z,88.33
2019-01-19T12:29:47.261Z,87.36
2019-01-19T12:32:51.146Z,87.22
2019-01-19T12:35:55.008Z,86.60
2019-01-19T12:38:58.823Z,85.90
2019-01-19T12:42:02.758Z,86.25
2019-01-19T12:45:09.824Z,86.08
2019-01-19T12:48:13.693Z,86.21
2019-01-19T12:51:17.576Z,86.24
2019-01-19T12:54:21.384Z,86.22
2019-01-19T12:57:25.283Z,86.33
2019-01-19T13:00:29.228Z,86.36
2019-01-19T13:03:33.196Z,86.17
2019-01-19T13:06:41.922Z,86.34
2019-01-19T13:09:52.484Z,86.19
2019-01-19T13:13:23.510Z,86.31
2019-01-19T13:17:07.004Z,86.34
2019-01-19T13:20:19.617Z,86.30
2019-01-19T13:23:51.233Z,86.40
2019-01-19T13:27:35.374Z,86.38
2019-01-19T13:31:10.364Z,86.38
2019-01-19T13:35:05.631Z,86.35
2019-01-19T13:38:45.442Z,86.37
2019-01-19T13:42:35.410Z,86.24
2019-01-19T13:46:03.968Z,86.24
2019-01-19T13:50:00.098Z,86.18
2019-01-19T13:53:31.671Z,86.14
2019-01-19T13:57:22.751Z,86.14
2019-01-19T14:00:55.711Z,86.10
2019-01-19T14:04:25.524Z,86.22
2019-01-19T14:08:13.391Z,86.16
2019-01-19T14:11:53.640Z,86.21
2019-01-19T14:15:35.564Z,86.30
2019-01-19T14:19:19.371Z,86.22
2019-01-19T14:23:08.662Z,86.23
2019-01-19T14:26:54.917Z,86.32
2019-01-19T14:30:45.709Z,86.34
2019-01-19T14:34:12.668Z,86.36
2019-01-19T14:37:58.535Z,86.37
2019-01-19T14:41:38.918Z,86.36
2019-01-19T14:45:00.989Z,86.40
2019-01-19T14:49:10.749Z,86.43
2019-01-19T14:52:48.623Z,86.42
2019-01-19T14:56:24.582Z,86.44
2019-01-19T14:59:50.739Z,86.42
2019-01-19T15:03:32.718Z,86.47
2019-01-19T15:07:20.732Z,86.54
2019-01-19T15:10:36.491Z,86.58
2019-01-19T15:14:14.360Z,86.59
2019-01-19T15:18:13.396Z,86.65
2019-01-19T15:21:34.270Z,86.70
2019-01-19T15:24:51.009Z,86.71
2019-01-19T15:28:43.541Z,86.70
2019-01-19T15:32:37.950Z,86.69
2019-01-19T15:36:21.599Z,86.74
2019-01-19T15:39:38.488Z,86.74
2019-01-19T15:43:08.472Z,86.81
2019-01-19T15:46:40.428Z,86.86
2019-01-19T15:50:31.721Z,86.92
2019-01-19T15:54:26.150Z,86.88
2019-01-19T15:58:20.477Z,86.91
2019-01-19T16:02:02.999Z,86.91
2019-01-19T16:05:17.463Z,86.96
2019-01-19T16:08:43.854Z,86.98
2019-01-19T16:12:24.822Z,87.05
2019-01-19T16:16:07.020Z,87.09
2019-01-19T16:19:33.145Z,87.16
2019-01-19T16:23:10.741Z,87.24
2019-01-19T16:26:58.635Z,87.32
2019-01-19T16:30:32.905Z,87.35
2019-01-19T16:34:01.606Z,87.40
2019-01-19T16:37:14.834Z,87.42
2019-01-19T16:40:34.199Z,87.48
2019-01-19T16:44:00.446Z,87.53
2019-01-19T16:47:51.439Z,87.59
2019-01-19T16:51:18.618Z,87.61
2019-01-19T16:54:57.744Z,87.64
2019-01-19T16:58:42.043Z,87.66
2019-01-19T17:02:36.297Z,87.71
2019-01-19T17:06:03.572Z,87.71
2019-01-19T17:09:34.534Z,87.77
2019-01-19T17:13:08.212Z,87.74
2019-01-19T17:17:05.441Z,87.72
2019-01-19T17:20:25.133Z,87.74
2019-01-19T17:24:31.788Z,87.72
2019-01-19T17:28:28.922Z,87.71
2019-01-19T17:32:08.330Z,87.74
2019-01-19T17:35:53.106Z,87.69
2019-01-19T17:39:40.368Z,87.71
2019-01-19T17:43:10.143Z,87.71
2019-01-19T17:46:50.595Z,87.69
2019-01-19T17:50:44.662Z,87.73
2019-01-19T17:54:33.096Z,87.78
2019-01-19T17:58:01.575Z,87.73
2019-01-19T18:01:30.342Z,87.74
2019-01-19T18:05:04.508Z,87.75
2019-01-19T18:08:26.376Z,87.73
2019-01-19T18:11:59.677Z,87.75
2019-01-19T18:15:37.577Z,87.75
2019-01-19T18:19:17.569Z,87.71
2019-01-19T18:22:57.108Z,87.67
2019-01-19T18:26:28.781Z,87.75
2019-01-19T18:30:30.665Z,87.79
2019-01-19T18:34:02.004Z,87.68
2019-01-19T18:37:52.414Z,87.61
2019-01-19T18:41:25.278Z,87.55
2019-01-19T18:44:58.248Z,87.50
2019-01-19T18:49:01.418Z,87.53
2019-01-19T18:52:29.537Z,87.52
2019-01-19T18:56:04.765Z,87.52
2019-01-19T18:59:55.928Z,87.49
2019-01-19T19:03:36.879Z,87.21
2019-01-19T19:07:17.033Z,87.37
2019-01-19T19:10:52.453Z,87.42
2019-01-19T19:14:38.441Z,87.44
2019-01-19T19:18:07.555Z,87.41
2019-01-19T19:21:21.308Z,87.35
2019-01-19T19:25:05.163Z,87.32
2019-01-19T19:28:44.145Z,87.29
2019-01-19T19:31:58.822Z,87.26
2019-01-19T19:35:37.840Z,87.22
2019-01-19T19:39:23.045Z,87.21
2019-01-19T19:43:03.655Z,87.27
2019-01-19T19:46:38.555Z,87.21
2019-01-19T19:50:29.301Z,87.19
2019-01-19T19:53:33.269Z,87.18
2019-01-19T19:56:35.691Z,87.19
2019-01-19T19:59:39.526Z,87.18
2019-01-19T20:02:43.330Z,87.18
2019-01-19T20:05:47.193Z,87.14
2019-01-19T20:08:51.008Z,87.09
2019-01-19T20:12:00.562Z,87.05
2019-01-19T20:15:05.749Z,87.05
2019-01-19T20:18:09.584Z,87.02
2019-01-19T20:21:13.479Z,87.02
2019-01-19T20:24:17.349Z,87.02
2019-01-19T20:27:21.164Z,86.99
2019-01-19T20:30:25.123Z,86.99
2019-01-19T20:33:29.031Z,86.93
2019-01-19T20:36:32.927Z,86.86
2019-01-19T20:39:36.816Z,86.83
2019-01-19T20:42:40.821Z,86.78
2019-01-19T20:45:44.704Z,86.77
2019-01-19T20:48:48.530Z,86.77
2019-01-19T20:51:52.357Z,86.80
2019-01-19T20:54:56.269Z,86.82
2019-01-19T20:58:00.180Z,86.74
2019-01-19T21:01:04.097Z,86.85
2019-01-19T21:04:07.998Z,86.95
2019-01-19T21:07:11.846Z,86.95
2019-01-19T21:10:15.821Z,86.91
2019-01-19T21:13:19.675Z,86.86
2019-01-19T21:16:23.495Z,86.85
2019-01-19T21:19:27.307Z,86.49
2019-01-19T21:22:31.205Z,86.61
2019-01-19T21:25:35.098Z,86.53
2019-01-19T21:28:38.985Z,86.40
2019-01-19T21:31:42.825Z,86.51
2019-01-19T21:34:46.631Z,86.42
2019-01-19T21:37:50.515Z,86.51
2019-01-19T21:40:54.320Z,86.57
2019-01-19T21:43:58.160Z,86.61
2019-01-19T21:47:02.062Z,86.56
2019-01-19T21:50:06.783Z,86.53
2019-01-19T21:53:10.682Z,86.56
2019-01-19T21:56:14.481Z,86.47
2019-01-19T21:59:18.310Z,86.51
2019-01-19T22:02:22.127Z,86.55
2019-01-19T22:05:25.945Z,86.47
2019-01-19T22:08:29.757Z,86.45
2019-01-19T22:11:33.563Z,86.49
2019-01-19T22:14:37.463Z,86.44
2019-01-19T22:17:41.444Z,86.29
2019-01-19T22:20:45.251Z,86.48
2019-01-19T22:23:49.047Z,86.48
2019-01-19T22:26:53.660Z,86.51
2019-01-19T22:29:57.473Z,86.45
2019-01-19T22:33:01.551Z,86.41
2019-01-19T22:36:05.439Z,86.42
2019-01-19T22:39:09.277Z,86.45
2019-01-19T22:42:13.097Z,86.41
2019-01-19T22:45:17.084Z,86.37
2019-01-19T22:48:20.900Z,86.32
2019-01-19T22:51:24.710Z,86.32
2019-01-19T22:54:28.516Z,86.32
2019-01-19T22:57:32.364Z,86.33
2019-01-19T23:01:04.214Z,86.25
2019-01-19T23:04:08.190Z,86.31
2019-01-19T23:07:12.012Z,86.26
2019-01-19T23:10:15.954Z,86.38
2019-01-19T23:13:19.870Z,86.36
2019-01-19T23:16:23.807Z,86.38
2019-01-19T23:19:27.667Z,86.38
2019-01-19T23:22:31.672Z,86.58
2019-01-19T23:25:35.539Z,86.55
2019-01-19T23:28:39.358Z,86.48
2019-01-19T23:31:43.434Z,86.60
2019-01-19T23:34:47.336Z,86.71
2019-01-19T23:37:51.228Z,86.67
2019-01-19T23:40:55.045Z,86.68
2019-01-19T23:43:58.995Z,86.78
2019-01-19T23:47:02.829Z,86.81
2019-01-19T23:50:06.771Z,86.78
2019-01-19T23:53:10.689Z,86.76
2019-01-19T23:56:14.504Z,86.75
2019-01-19T23:59:18.345Z,86.84
